X  Fermer Données météorologiques d'aviation de Metar        KPNS Naval Air Station - Pensacola, Florida
Température
80°F Température
74°F Point de rosée
82% Humidité



Vent
5 MPH
7 KM/H
2 M/S
4 KTS



250°
OSO
Conditions actuelles

Clear Clair
Pression 1021 (hPa) - 30.14 (inHg)
Visibilité 10 (mile) - 16 (km)
Aéroport
Code de l'aéroport KPNS

Emplacement: Naval Air Station - Pensacola, Florida
Distance: 1 (mi)

Metar:
METAR KPNS 140553Z AUTO 25004KT 10SM CLR 27/23 A3014 RMK AO2 SLP206 T02670233 10300 20267 403220250 58007

Temps: 07-14-2024 00:53 CDT